Warriormine, WV (24894)

12:54 PM EDT on September 02, 2014 (GMT -0400)
Tazewell County | Change Station
CLOSE
Current Station
Airport
Location: Richlands,
Elevation: 2651 ft
Nearby Weather Stations

Elev 2651 ft 37.06 °N, 81.80 °W | Updated 19 minutes ago

Mostly Cloudy
Mostly Cloudy
82 °F
Feels Like 86 °F
N
10
Wind Variable Wind from SSW
Gusts 17 mph

Today
High -- | Low -- °F
--% Chance of Precip.
Yesterday
High -- | Low -- °F
Precip. -- in
6:58 AM 7:54 PM
First Quarter, 53% visible
Pressure 30.17 in
Visibility 10.0 miles
Clouds Mostly Cloudy 2300 ft
Mostly Cloudy 3100 ft
Mostly Cloudy 4600 ft
Heat Index 86 °F
Dew Point 71 °F
Humidity 70%
Rainfall 0.00 in
Snow Depth Not available.
UV 5 out of 12
Pollen 9.20 out of 12
Air Quality Not available.
Flu Activity Not available.
METAR KJFZ 021635Z AUTO 21009G15KT 190V250 10SM BKN023 BKN031 BKN046 28/22 A3017 RMK AO2 T02760216

More Conditions Fewer Conditions

Pressure 30.17 in
Visibility 10.0 miles
Clouds Mostly Cloudy 2300 ft
Mostly Cloudy 3100 ft
Mostly Cloudy 4600 ft
Heat Index 86 °F
Dew Point 71 °F
Humidity 70%
Rainfall 0.00 in
Snow Depth Not available.
UV 5 out of 12
Pollen 9.20 out of 12
Air Quality Not available.
Flu Activity Not available.
METAR KJFZ 021635Z AUTO 21009G15KT 190V250 10SM BKN023 BKN031 BKN046 28/22 A3017 RMK AO2 T02760216

More Conditions Fewer Conditions

10-Day Weather Forecast

Almanac

Astronomy

Sep. 02, 2014 Rise Set
Actual Time 6:58 AM EDT 7:54 PM EDT
Civil Twilight 6:31 AM EDT 8:20 PM EDT
Nautical Twilight 5:59 AM EDT 8:52 PM EDT
Astronomical Twilight 5:27 AM EDT 9:24 PM EDT
Moon 2:31 PM EDT 12:04 AM EDT
Length of Visible Light 13h 49m
Length of Day
12h 55m
Tomorrow will be 2m 17s shorter.
First Quarter, 53% of the Moon is Illuminated
Today
First Quarter
Sep 8
Full
Sep 15
Last Quarter
Sep 24
New
Oct 1
First Quarter

Today's Extremes

State Highs State Lows

Community

WunderPhotos

Upload Photos

1,749,716 photos uploaded!

WunderBlogs® & News

Nearby

Snow Depth

Station Depth Elevation
No new snow has been reported.

Earthquake Activity

City Distance Mag. Time & Date
No recent earthquake activity has been reported nearby.
Minimum magnitude displayed is 2.5.

Coastal Water Temperatures

Place Temperature
No Stations Reporting

Nearby Weather Stations